Terminal Aerodrome Forecast
Issued by NWS Goodland, KS

Home | Current Version | Previous Version | Text Only | Print | Product List | Glossary On
Versions: 1 2 3 4 5 6 7 8 9 10 11 12 13 14 15 16 17 18 19
000
FTUS43 KGLD 011728
TAFGLD
TAF
KGLD 011728Z 0118/0218 36018G25KT P6SM FEW015 OVC025
     FM011900 01017G24KT P6SM OVC035
     FM012300 36011KT P6SM BKN060
     FM020300 34005KT P6SM SCT140=

USA.gov is the U.S. government's official web portal to all federal, state and local government web resources and services.